createdAt,value
2022-12-31T00:00:34.653Z,8.40
2022-12-31T00:03:03.102Z,8.40
2022-12-31T00:05:34.510Z,8.40
2022-12-31T00:08:02.993Z,8.50
2022-12-31T00:10:30.828Z,8.50
2022-12-31T00:12:58.412Z,8.40
2022-12-31T00:15:25.937Z,8.50
2022-12-31T00:17:53.517Z,8.60
2022-12-31T00:20:21.022Z,8.60
2022-12-31T00:22:48.562Z,8.70
2022-12-31T00:25:16.126Z,8.70
2022-12-31T00:27:43.694Z,8.80
2022-12-31T00:30:12.092Z,8.80
2022-12-31T00:32:39.856Z,8.80
2022-12-31T00:35:07.816Z,8.90
2022-12-31T00:37:35.640Z,9.00
2022-12-31T00:40:03.436Z,9.00
2022-12-31T00:42:31.077Z,9.10
2022-12-31T00:44:58.590Z,9.00
2022-12-31T00:47:26.442Z,9.10
2022-12-31T00:49:54.106Z,9.00
2022-12-31T00:52:21.964Z,9.10
2022-12-31T00:54:49.446Z,9.00
2022-12-31T00:57:24.396Z,9.00
2022-12-31T00:59:51.993Z,8.90
2022-12-31T01:02:19.657Z,8.90
2022-12-31T01:04:47.446Z,8.90
2022-12-31T01:07:14.929Z,8.80
2022-12-31T01:09:42.640Z,8.70
2022-12-31T01:12:10.127Z,8.70
2022-12-31T01:14:37.681Z,8.70
2022-12-31T01:17:05.189Z,8.60
2022-12-31T01:19:32.832Z,8.50
2022-12-31T01:22:00.317Z,8.60
2022-12-31T01:24:27.814Z,8.50
2022-12-31T01:26:57.816Z,8.60
2022-12-31T01:29:26.961Z,8.50
2022-12-31T01:31:54.684Z,8.60
2022-12-31T01:34:22.456Z,8.60
2022-12-31T01:36:49.950Z,8.60
2022-12-31T01:39:17.536Z,8.70
2022-12-31T01:41:47.521Z,8.70
2022-12-31T01:44:23.865Z,8.70
2022-12-31T01:47:04.164Z,8.70
2022-12-31T01:49:59.318Z,8.70
2022-12-31T01:52:55.486Z,8.70
2022-12-31T01:55:45.957Z,8.80
2022-12-31T01:58:27.600Z,8.80
2022-12-31T02:01:00.300Z,8.80
2022-12-31T02:03:29.767Z,8.80
2022-12-31T02:06:14.945Z,8.80
2022-12-31T02:08:43.755Z,8.70
2022-12-31T02:11:38.314Z,8.70
2022-12-31T02:14:11.882Z,8.60
2022-12-31T02:16:40.134Z,8.60
2022-12-31T02:19:29.276Z,8.50
2022-12-31T02:21:59.911Z,8.50
2022-12-31T02:25:18.816Z,8.50
2022-12-31T02:28:13.815Z,8.40
2022-12-31T02:30:43.334Z,8.40
2022-12-31T02:33:24.556Z,8.40
2022-12-31T02:35:58.112Z,8.40
2022-12-31T02:38:32.609Z,8.40
2022-12-31T02:41:00.615Z,8.30
2022-12-31T02:43:28.712Z,8.30
2022-12-31T02:46:13.580Z,8.30
2022-12-31T02:48:56.568Z,8.30
2022-12-31T02:51:42.739Z,8.30
2022-12-31T02:54:29.210Z,8.30
2022-12-31T03:00:30.548Z,8.30
2022-12-31T03:03:00.426Z,8.40
2022-12-31T03:05:30.873Z,8.40
2022-12-31T03:07:58.391Z,8.40
2022-12-31T03:10:26.057Z,8.40
2022-12-31T03:12:53.632Z,8.40
2022-12-31T03:15:31.603Z,8.40
2022-12-31T03:18:06.764Z,8.40
2022-12-31T03:20:58.139Z,8.40
2022-12-31T03:23:28.510Z,8.40
2022-12-31T03:25:57.052Z,8.40
2022-12-31T03:28:27.419Z,8.50
2022-12-31T03:31:01.475Z,8.40
2022-12-31T03:33:37.938Z,8.50
2022-12-31T03:36:08.071Z,8.50
2022-12-31T03:38:36.028Z,8.50
2022-12-31T03:41:03.774Z,8.50
2022-12-31T03:43:31.423Z,8.50
2022-12-31T03:46:01.256Z,8.50
2022-12-31T03:48:29.145Z,8.50
2022-12-31T03:50:56.724Z,8.50
2022-12-31T03:53:24.621Z,8.50
2022-12-31T03:55:53.249Z,8.50
2022-12-31T03:58:21.873Z,8.50
2022-12-31T04:00:49.823Z,8.60
2022-12-31T04:03:17.536Z,8.50
2022-12-31T04:05:45.099Z,8.50
2022-12-31T04:08:12.723Z,8.50
2022-12-31T04:10:40.306Z,8.60
2022-12-31T04:13:07.924Z,8.60
2022-12-31T04:15:35.438Z,8.50
2022-12-31T04:18:03.164Z,8.50
2022-12-31T04:20:30.707Z,8.60
2022-12-31T04:22:58.267Z,8.50
2022-12-31T04:25:25.827Z,8.50
2022-12-31T04:27:53.364Z,8.50
2022-12-31T04:30:20.876Z,8.50
2022-12-31T04:32:48.433Z,8.50
2022-12-31T04:35:16.056Z,8.50
2022-12-31T04:37:43.670Z,8.50
2022-12-31T04:40:11.523Z,8.50
2022-12-31T04:42:41.822Z,8.50
2022-12-31T04:45:10.747Z,8.50
2022-12-31T04:47:38.338Z,8.50
2022-12-31T04:50:06.382Z,8.50
2022-12-31T04:52:38.800Z,8.50
2022-12-31T04:55:10.889Z,8.50
2022-12-31T04:57:38.568Z,8.50
2022-12-31T05:00:06.777Z,8.50
2022-12-31T05:02:34.466Z,8.50
2022-12-31T05:05:02.186Z,8.50
2022-12-31T05:07:29.716Z,8.50
2022-12-31T05:09:57.285Z,8.50
2022-12-31T05:12:24.862Z,8.50
2022-12-31T05:14:52.425Z,8.50
2022-12-31T05:17:20.940Z,8.50
2022-12-31T05:19:48.494Z,8.50
2022-12-31T05:22:31.270Z,8.50
2022-12-31T05:25:00.305Z,8.50
2022-12-31T05:27:31.222Z,8.50
2022-12-31T05:29:59.855Z,8.50
2022-12-31T05:32:27.593Z,8.50
2022-12-31T05:34:55.224Z,8.50
2022-12-31T05:37:22.987Z,8.50
2022-12-31T05:39:50.600Z,8.50
2022-12-31T05:42:18.176Z,8.50
2022-12-31T05:44:45.800Z,8.50
2022-12-31T05:47:13.523Z,8.50
2022-12-31T05:49:41.094Z,8.50
2022-12-31T05:52:09.225Z,8.50
2022-12-31T05:54:36.878Z,8.60
2022-12-31T05:57:05.332Z,8.60
2022-12-31T05:59:33.005Z,8.50
2022-12-31T06:02:00.789Z,8.60
2022-12-31T06:04:28.413Z,8.60
2022-12-31T06:06:56.136Z,8.60
2022-12-31T06:09:24.244Z,8.70
2022-12-31T06:11:52.297Z,8.70
2022-12-31T06:14:20.017Z,8.70
2022-12-31T06:16:47.540Z,8.80
2022-12-31T06:19:15.280Z,8.70
2022-12-31T06:21:42.813Z,8.80
2022-12-31T06:24:10.477Z,8.80
2022-12-31T06:26:38.052Z,8.80
2022-12-31T06:29:05.621Z,8.80
2022-12-31T06:31:33.464Z,8.80
2022-12-31T06:34:01.089Z,8.80
2022-12-31T06:36:29.043Z,8.80
2022-12-31T06:38:56.800Z,8.80
2022-12-31T06:41:24.579Z,8.80
2022-12-31T06:43:52.274Z,8.80
2022-12-31T06:46:19.942Z,8.80
2022-12-31T06:48:47.517Z,8.90
2022-12-31T06:51:17.912Z,8.90
2022-12-31T06:53:47.661Z,8.90
2022-12-31T06:56:31.392Z,8.90
2022-12-31T06:59:02.241Z,8.80
2022-12-31T07:01:38.915Z,8.80
2022-12-31T07:04:44.129Z,8.90
2022-12-31T07:07:35.558Z,8.90
2022-12-31T07:10:19.119Z,8.90
2022-12-31T07:13:34.265Z,8.90
2022-12-31T07:16:38.640Z,8.90
2022-12-31T07:19:41.162Z,8.80
2022-12-31T07:22:14.965Z,8.80
2022-12-31T07:24:43.665Z,8.80
2022-12-31T07:27:23.110Z,8.80
2022-12-31T07:30:06.556Z,8.80
2022-12-31T07:32:57.355Z,8.70
2022-12-31T07:35:34.511Z,8.70
2022-12-31T07:38:24.914Z,8.70
2022-12-31T07:41:11.513Z,8.70
2022-12-31T07:43:48.186Z,8.70
2022-12-31T07:46:21.794Z,8.70
2022-12-31T07:48:49.789Z,8.80
2022-12-31T07:51:17.621Z,8.80
2022-12-31T07:53:45.238Z,8.70
2022-12-31T07:56:13.655Z,8.70
2022-12-31T07:58:56.430Z,8.70
2022-12-31T08:01:51.705Z,8.70
2022-12-31T08:04:41.274Z,8.70
2022-12-31T08:07:37.006Z,8.70
2022-12-31T08:10:17.274Z,8.70
2022-12-31T08:12:49.651Z,8.70
2022-12-31T08:15:19.250Z,8.70
2022-12-31T08:20:17.488Z,8.70
2022-12-31T08:22:47.761Z,8.60
2022-12-31T08:25:21.225Z,8.60
2022-12-31T08:28:24.483Z,8.60
2022-12-31T08:31:08.672Z,8.60
2022-12-31T08:33:47.187Z,8.60
2022-12-31T08:36:49.948Z,8.60
2022-12-31T08:39:35.639Z,8.70
2022-12-31T08:42:13.055Z,8.60
2022-12-31T08:45:03.197Z,8.70
2022-12-31T08:48:00.232Z,8.70
2022-12-31T08:50:28.700Z,8.70
2022-12-31T08:52:56.682Z,8.80
2022-12-31T08:55:24.963Z,8.80
2022-12-31T08:58:18.312Z,8.80
2022-12-31T09:00:48.042Z,8.80
2022-12-31T09:03:45.704Z,8.80
2022-12-31T09:06:22.888Z,8.90
2022-12-31T09:09:04.807Z,8.90
2022-12-31T09:11:57.144Z,8.90
2022-12-31T09:15:05.370Z,8.90
2022-12-31T09:17:46.502Z,8.90
2022-12-31T09:20:32.512Z,8.90
2022-12-31T09:23:10.077Z,8.90
2022-12-31T09:25:46.986Z,9.00
2022-12-31T09:28:46.031Z,9.00
2022-12-31T09:31:24.424Z,9.00
2022-12-31T09:34:15.640Z,9.00
2022-12-31T09:36:49.691Z,9.00
2022-12-31T09:39:20.032Z,9.00
2022-12-31T09:41:47.512Z,9.00
2022-12-31T09:44:37.031Z,9.00
2022-12-31T09:47:23.149Z,9.00
2022-12-31T09:50:03.555Z,9.00
2022-12-31T09:52:55.536Z,9.00
2022-12-31T09:55:42.350Z,9.00
2022-12-31T09:58:40.086Z,9.00
2022-12-31T10:01:13.961Z,9.00
2022-12-31T10:04:03.503Z,9.10
2022-12-31T10:07:01.999Z,9.10
2022-12-31T10:10:01.672Z,9.10
2022-12-31T10:12:48.131Z,9.10
2022-12-31T10:15:31.201Z,9.10
2022-12-31T10:18:12.706Z,9.10
2022-12-31T10:20:52.281Z,9.10
2022-12-31T10:23:46.846Z,9.10
2022-12-31T10:26:44.611Z,9.10
2022-12-31T10:29:40.806Z,9.20
2022-12-31T10:32:31.657Z,9.20
2022-12-31T10:35:15.132Z,9.20
2022-12-31T10:37:46.892Z,9.30
2022-12-31T10:40:28.484Z,9.30
2022-12-31T10:42:58.775Z,9.30
2022-12-31T10:45:38.416Z,9.40
2022-12-31T10:48:11.802Z,9.40
2022-12-31T10:50:48.744Z,9.50
2022-12-31T10:53:46.090Z,9.50
2022-12-31T10:56:16.758Z,9.60
2022-12-31T10:59:21.952Z,9.70
2022-12-31T11:02:40.702Z,9.70
2022-12-31T11:05:14.150Z,9.80
2022-12-31T11:08:01.327Z,9.90
2022-12-31T11:10:56.810Z,9.90
2022-12-31T11:13:39.034Z,10.00
2022-12-31T11:16:36.965Z,10.10
2022-12-31T11:19:28.076Z,10.20
2022-12-31T11:22:48.666Z,10.30
2022-12-31T11:25:20.843Z,10.30
2022-12-31T11:28:03.275Z,10.30
2022-12-31T11:31:01.918Z,10.40
2022-12-31T11:33:35.606Z,10.40
2022-12-31T11:36:40.910Z,10.40
2022-12-31T11:39:31.849Z,10.40
2022-12-31T11:42:18.392Z,10.40
2022-12-31T11:45:13.323Z,10.40
2022-12-31T11:48:28.447Z,10.40
2022-12-31T11:51:11.587Z,10.40
2022-12-31T11:54:07.018Z,10.40
2022-12-31T11:56:40.506Z,10.40
2022-12-31T11:59:18.916Z,10.40
2022-12-31T12:02:22.930Z,10.50
2022-12-31T12:04:51.033Z,10.50
2022-12-31T12:07:19.810Z,10.50
2022-12-31T12:09:48.168Z,10.50
2022-12-31T12:12:16.491Z,10.50
2022-12-31T12:14:49.287Z,10.50
2022-12-31T12:17:32.260Z,10.50
2022-12-31T12:20:03.210Z,10.60
2022-12-31T12:22:31.464Z,10.60
2022-12-31T12:25:04.963Z,10.60
2022-12-31T12:27:35.710Z,10.60
2022-12-31T12:30:19.806Z,10.60
2022-12-31T12:33:02.087Z,10.60
2022-12-31T12:35:32.956Z,10.60
2022-12-31T12:38:19.005Z,10.60
2022-12-31T12:40:58.617Z,10.60
2022-12-31T12:43:33.285Z,10.60
2022-12-31T12:46:06.170Z,10.70
2022-12-31T12:48:46.023Z,10.70
2022-12-31T12:51:19.465Z,10.70
2022-12-31T12:54:14.927Z,10.70
2022-12-31T12:57:11.193Z,10.70
2022-12-31T12:59:47.808Z,10.70
2022-12-31T13:02:34.353Z,10.70
2022-12-31T13:05:28.308Z,10.60
2022-12-31T13:08:01.706Z,10.60
2022-12-31T13:10:47.836Z,10.60
2022-12-31T13:14:03.092Z,10.60
2022-12-31T13:17:06.138Z,10.60
2022-12-31T13:19:50.683Z,10.60
2022-12-31T13:22:38.483Z,10.60
2022-12-31T13:25:25.830Z,10.60
2022-12-31T13:27:58.488Z,10.60
2022-12-31T13:30:37.720Z,10.60
2022-12-31T13:33:34.536Z,10.60
2022-12-31T13:36:09.356Z,10.60
2022-12-31T13:38:39.059Z,10.60
2022-12-31T13:41:12.674Z,10.60
2022-12-31T13:44:08.401Z,10.60
2022-12-31T13:46:41.577Z,10.50
2022-12-31T13:49:36.257Z,10.60
2022-12-31T13:52:38.035Z,10.50
2022-12-31T13:55:11.459Z,10.50
2022-12-31T13:57:57.746Z,10.50
2022-12-31T14:00:31.529Z,10.50
2022-12-31T14:03:35.820Z,10.50
2022-12-31T14:06:22.572Z,10.50
2022-12-31T14:08:53.250Z,10.50
2022-12-31T14:12:11.490Z,10.50
2022-12-31T14:15:02.126Z,10.50
2022-12-31T14:17:45.129Z,10.50
2022-12-31T14:20:18.368Z,10.40
2022-12-31T14:23:13.191Z,10.40
2022-12-31T14:25:46.491Z,10.40
2022-12-31T14:28:34.857Z,10.40
2022-12-31T14:31:16.689Z,10.40
2022-12-31T14:33:51.963Z,10.40
2022-12-31T14:36:39.157Z,10.30
2022-12-31T14:39:25.572Z,10.30
2022-12-31T14:42:01.084Z,10.30
2022-12-31T14:44:42.264Z,11.00
2022-12-31T14:47:47.695Z,10.30
2022-12-31T14:50:25.125Z,10.30
2022-12-31T14:53:16.017Z,10.30
2022-12-31T14:55:43.663Z,10.30
2022-12-31T14:58:36.238Z,10.20
2022-12-31T15:01:08.865Z,10.20
2022-12-31T15:03:45.425Z,10.20
2022-12-31T15:06:32.151Z,10.20
2022-12-31T15:09:14.829Z,10.20
2022-12-31T15:12:07.293Z,10.20
2022-12-31T15:15:16.934Z,10.20
2022-12-31T15:17:56.397Z,10.20
2022-12-31T15:20:40.830Z,10.10
2022-12-31T15:23:22.082Z,10.10
2022-12-31T15:25:59.236Z,10.10
2022-12-31T15:28:34.384Z,10.10
2022-12-31T15:31:20.068Z,10.10
2022-12-31T15:34:01.545Z,10.10
2022-12-31T15:36:35.729Z,10.10
2022-12-31T15:39:24.248Z,10.10
2022-12-31T15:42:36.147Z,10.10
2022-12-31T15:44:55.009Z,10.10
2022-12-31T15:47:29.408Z,10.00
2022-12-31T15:50:12.347Z,10.00
2022-12-31T15:52:43.720Z,10.00
2022-12-31T15:55:23.447Z,10.00
2022-12-31T15:57:51.961Z,10.00
2022-12-31T16:00:23.407Z,10.00
2022-12-31T16:02:54.408Z,10.00
2022-12-31T16:05:24.542Z,10.00
2022-12-31T16:07:56.605Z,10.00
2022-12-31T16:10:30.250Z,10.00
2022-12-31T16:12:58.987Z,10.00
2022-12-31T16:15:30.509Z,9.90
2022-12-31T16:17:59.354Z,9.90
2022-12-31T16:20:32.479Z,9.90
2022-12-31T16:23:03.217Z,9.90
2022-12-31T16:25:33.668Z,9.90
2022-12-31T16:28:03.694Z,9.90
2022-12-31T16:30:33.325Z,9.90
2022-12-31T16:33:05.100Z,9.90
2022-12-31T16:35:36.345Z,9.90
2022-12-31T16:38:17.206Z,9.90
2022-12-31T16:41:04.792Z,9.90
2022-12-31T16:43:40.948Z,10.00
2022-12-31T16:46:15.141Z,10.00
2022-12-31T16:48:57.465Z,10.00
2022-12-31T16:51:31.144Z,10.00
2022-12-31T16:54:01.549Z,9.90
2022-12-31T16:56:36.400Z,9.90
2022-12-31T16:59:12.641Z,10.00
2022-12-31T17:01:41.701Z,9.90
2022-12-31T17:04:14.741Z,10.30
2022-12-31T17:06:43.213Z,10.00
2022-12-31T17:09:20.673Z,10.00
2022-12-31T17:11:56.863Z,10.00
2022-12-31T17:14:27.670Z,10.00
2022-12-31T17:17:03.498Z,10.00
2022-12-31T17:19:43.401Z,10.00
2022-12-31T17:22:44.094Z,10.00
2022-12-31T17:25:20.923Z,10.00
2022-12-31T17:28:20.291Z,10.00
2022-12-31T17:30:48.142Z,9.90
2022-12-31T17:33:21.765Z,10.00
2022-12-31T17:35:58.559Z,10.00
2022-12-31T17:38:32.974Z,9.90
2022-12-31T17:41:13.816Z,9.90
2022-12-31T17:43:42.634Z,10.00
2022-12-31T17:46:13.341Z,9.90
2022-12-31T17:48:41.863Z,9.90
2022-12-31T17:51:09.687Z,9.90
2022-12-31T17:53:37.291Z,9.90
2022-12-31T17:56:07.594Z,9.90
2022-12-31T17:58:38.430Z,9.90
2022-12-31T18:01:07.929Z,9.90
2022-12-31T18:03:36.354Z,9.90
2022-12-31T18:06:05.440Z,9.90
2022-12-31T18:08:32.977Z,9.90
2022-12-31T18:11:00.591Z,9.90
2022-12-31T18:13:28.186Z,9.90
2022-12-31T18:15:55.814Z,9.90
2022-12-31T18:18:32.703Z,10.00
2022-12-31T18:21:03.857Z,10.00
2022-12-31T18:23:37.731Z,10.00
2022-12-31T18:26:05.335Z,10.00
2022-12-31T18:28:32.903Z,10.00
2022-12-31T18:31:00.726Z,10.00
2022-12-31T18:33:28.643Z,10.00
2022-12-31T18:36:11.661Z,10.00
2022-12-31T18:38:39.661Z,10.00
2022-12-31T18:41:12.265Z,9.90
2022-12-31T18:43:39.870Z,10.00
2022-12-31T18:46:14.204Z,9.90
2022-12-31T18:48:42.009Z,9.80
2022-12-31T18:51:18.163Z,9.80
2022-12-31T18:53:45.913Z,9.80
2022-12-31T18:56:19.845Z,9.80
2022-12-31T18:58:47.907Z,9.70
2022-12-31T19:01:26.227Z,9.70
2022-12-31T19:04:11.374Z,9.70
2022-12-31T19:06:39.058Z,9.70
2022-12-31T19:09:23.688Z,9.70
2022-12-31T19:11:54.190Z,9.70
2022-12-31T19:14:24.280Z,9.70
2022-12-31T19:16:53.589Z,9.60
2022-12-31T19:19:21.419Z,9.60
2022-12-31T19:21:49.022Z,9.60
2022-12-31T19:24:23.325Z,9.60
2022-12-31T19:26:51.150Z,9.60
2022-12-31T19:29:19.868Z,9.50
2022-12-31T19:31:48.356Z,9.50
2022-12-31T19:34:16.054Z,9.50
2022-12-31T19:36:44.446Z,9.50
2022-12-31T19:39:18.050Z,9.50
2022-12-31T19:41:47.527Z,9.50
2022-12-31T19:44:18.363Z,9.50
2022-12-31T19:46:46.817Z,9.60
2022-12-31T19:49:14.821Z,9.50
2022-12-31T19:51:42.810Z,9.50
2022-12-31T19:54:13.157Z,9.50
2022-12-31T19:56:41.039Z,9.60
2022-12-31T19:59:10.688Z,9.60
2022-12-31T20:01:39.013Z,9.60
2022-12-31T20:04:06.940Z,9.60
2022-12-31T20:06:34.759Z,9.50
2022-12-31T20:09:03.421Z,9.60
2022-12-31T20:11:31.288Z,9.50
2022-12-31T20:13:59.093Z,9.50
2022-12-31T20:16:27.058Z,9.50
2022-12-31T20:18:54.836Z,9.50
2022-12-31T20:21:25.500Z,9.50
2022-12-31T20:23:54.405Z,9.50
2022-12-31T20:26:24.063Z,9.50
2022-12-31T20:28:52.279Z,9.30
2022-12-31T20:31:23.915Z,9.30
2022-12-31T20:33:54.196Z,9.20
2022-12-31T20:36:23.047Z,9.20
2022-12-31T20:38:50.920Z,10.70
2022-12-31T20:41:23.219Z,9.00
2022-12-31T20:43:51.583Z,8.90
2022-12-31T20:46:25.123Z,8.90
2022-12-31T20:48:55.387Z,8.80
2022-12-31T20:51:23.650Z,8.80
2022-12-31T20:53:57.510Z,8.80
2022-12-31T20:56:29.744Z,8.70
2022-12-31T20:58:57.693Z,8.70
2022-12-31T21:01:32.212Z,8.70
2022-12-31T21:04:13.972Z,8.70
2022-12-31T21:06:41.656Z,8.60
2022-12-31T21:09:09.376Z,8.60
2022-12-31T21:11:55.722Z,8.60
2022-12-31T21:14:23.334Z,8.60
2022-12-31T21:16:50.903Z,8.60
2022-12-31T21:19:18.540Z,8.60
2022-12-31T21:21:48.134Z,8.60
2022-12-31T21:24:21.780Z,8.60
2022-12-31T21:26:52.033Z,8.60
2022-12-31T21:29:19.567Z,8.60
2022-12-31T21:31:47.146Z,8.50
2022-12-31T21:34:14.696Z,8.60
2022-12-31T21:36:42.244Z,8.60
2022-12-31T21:39:09.831Z,8.60
2022-12-31T21:41:52.644Z,8.50
2022-12-31T21:44:22.427Z,8.60
2022-12-31T21:47:38.533Z,8.10
2022-12-31T21:50:08.401Z,8.60
2022-12-31T21:52:36.203Z,8.60
2022-12-31T21:55:23.855Z,8.60
2022-12-31T21:58:24.647Z,8.60
2022-12-31T22:00:58.617Z,8.60
2022-12-31T22:03:29.511Z,8.60
2022-12-31T22:06:12.224Z,8.50
2022-12-31T22:08:44.567Z,8.40
2022-12-31T22:11:13.133Z,8.50
2022-12-31T22:13:41.136Z,8.40
2022-12-31T22:16:09.077Z,8.40
2022-12-31T22:18:39.124Z,8.50
2022-12-31T22:21:21.313Z,8.50
2022-12-31T22:23:51.753Z,8.50
2022-12-31T22:26:23.467Z,8.50
2022-12-31T22:28:51.213Z,8.50
2022-12-31T22:31:24.573Z,8.40
2022-12-31T22:33:53.198Z,8.40
2022-12-31T22:36:22.474Z,8.40
2022-12-31T22:38:51.268Z,8.40
2022-12-31T22:41:20.894Z,8.40
2022-12-31T22:43:50.587Z,8.40
2022-12-31T22:46:19.978Z,8.40
2022-12-31T22:48:48.087Z,9.70
2022-12-31T22:51:16.694Z,8.30
2022-12-31T22:53:44.739Z,8.30
2022-12-31T22:56:15.396Z,8.30
2022-12-31T22:58:43.826Z,8.30
2022-12-31T23:01:23.539Z,8.30
2022-12-31T23:03:53.324Z,8.30
2022-12-31T23:06:22.532Z,8.20
2022-12-31T23:09:11.154Z,8.20
2022-12-31T23:11:39.703Z,8.20
2022-12-31T23:14:29.211Z,8.20
2022-12-31T23:17:29.835Z,8.20
2022-12-31T23:20:19.378Z,8.30
2022-12-31T23:23:07.779Z,8.30
2022-12-31T23:25:38.283Z,8.30
2022-12-31T23:28:07.870Z,8.30
2022-12-31T23:30:41.587Z,8.30
2022-12-31T23:33:16.853Z,8.30
2022-12-31T23:35:45.297Z,8.30
2022-12-31T23:38:13.405Z,8.30
2022-12-31T23:40:41.035Z,8.40
2022-12-31T23:43:20.529Z,8.30
2022-12-31T23:45:52.166Z,8.40
2022-12-31T23:48:20.032Z,8.40
2022-12-31T23:50:53.773Z,8.40
2022-12-31T23:53:24.822Z,8.40
2022-12-31T23:55:53.234Z,8.50
2022-12-31T23:58:21.215Z,8.50
